Time;durP1;ratioP1;P1;durP2;ratioP2;P2;SDS_P1;SDS_P2;PMS_P1;PMS_P2;Temp;Humidity;BMP_temperature;BMP_pressure;BME280_temperature;BME280_humidity;BME280_pressure;Samples;Min_cycle;Max_cycle;Signal;HPM_P1;HPM_P2
2022/04/15 00:00:38;;;;;;;9.63;6.53;;;;;;;8.82;80.97;102287.53;5015465;28;20210;-71
2022/04/15 00:03:05;;;;;;;9.70;6.53;;;;;;;8.81;80.56;102285.75;5017247;28;20195;-71
2022/04/15 00:05:36;;;;;;;10.30;6.33;;;;;;;8.81;80.60;102278.06;5030559;28;20214;-72
2022/04/15 00:08:10;;;;;;;9.53;6.70;;;;;;;8.78;80.95;102280.50;5030765;28;20225;-71
2022/04/15 00:10:37;;;;;;;10.47;6.07;;;;;;;8.79;80.89;102282.25;5012465;28;20187;-71
2022/04/15 00:13:06;;;;;;;11.37;6.73;;;;;;;8.80;80.84;102284.00;5046624;28;20239;-71
2022/04/15 00:15:31;;;;;;;9.93;6.80;;;;;;;8.84;81.77;102290.16;5050157;28;20209;-72
2022/04/15 00:17:57;;;;;;;7.10;5.67;;;;;;;8.81;80.43;102284.88;5050172;28;20255;-72
2022/04/15 00:20:22;;;;;;;8.87;5.97;;;;;;;8.81;81.02;102285.75;5025972;28;20209;-72
2022/04/15 00:22:48;;;;;;;7.80;5.83;;;;;;;8.80;81.66;102286.53;5010762;28;20187;-71
2022/04/15 00:25:13;;;;;;;10.20;5.93;;;;;;;8.82;82.02;102284.06;5014159;28;20241;-72
2022/04/15 00:27:40;;;;;;;11.00;6.50;;;;;;;8.80;81.47;102288.25;5007126;28;20201;-72
2022/04/15 00:30:07;;;;;;;9.53;5.43;;;;;;;8.78;80.49;102290.72;5042955;28;20236;-72
2022/04/15 00:32:33;;;;;;;8.57;5.13;;;;;;;8.78;80.20;102289.81;5034165;28;20186;-71
2022/04/15 00:34:59;;;;;;;6.20;5.00;;;;;;;8.78;80.49;102289.81;5030031;28;20707;-72
2022/04/15 00:37:24;;;;;;;6.70;5.90;;;;;;;8.78;80.81;102288.16;5029400;28;20203;-72
2022/04/15 00:39:51;;;;;;;7.83;5.60;;;;;;;8.80;80.89;102285.69;5029670;28;20206;-71
2022/04/15 00:42:16;;;;;;;8.63;4.87;;;;;;;8.76;80.89;102281.22;5029431;28;20283;-72
2022/04/15 00:44:42;;;;;;;6.73;4.87;;;;;;;8.77;80.31;102285.53;5029574;28;20749;-71
2022/04/15 00:47:39;;;;;;;7.17;4.97;;;;;;;8.78;80.99;102287.28;5012576;28;20190;-71
2022/04/15 00:50:05;;;;;;;7.27;4.50;;;;;;;8.77;80.83;102288.06;5028589;28;20236;-71
2022/04/15 00:52:37;;;;;;;6.17;5.20;;;;;;;8.77;80.46;102290.63;5029694;28;20226;-72
2022/04/15 00:55:04;;;;;;;8.10;6.07;;;;;;;8.79;81.71;102294.13;5029004;28;20585;-72
2022/04/15 00:57:31;;;;;;;8.30;5.70;;;;;;;8.78;80.89;102290.72;5013985;28;20189;-71
2022/04/15 00:59:58;;;;;;;7.10;5.63;;;;;;;8.79;80.57;102284.81;5007869;28;20219;-72
2022/04/15 01:02:25;;;;;;;9.77;5.87;;;;;;;8.80;80.98;102288.25;5013428;28;20631;-71
2022/04/15 01:04:52;;;;;;;9.63;6.27;;;;;;;8.79;80.58;102291.56;5048852;28;20214;-72
2022/04/15 01:07:19;;;;;;;10.77;6.60;;;;;;;8.81;81.68;102301.06;5049452;28;20612;-71
2022/04/15 01:09:47;;;;;;;11.03;6.83;;;;;;;8.79;82.20;102289.03;5049036;28;20178;-71
2022/04/15 01:12:13;;;;;;;10.23;6.83;;;;;;;8.81;81.86;102292.53;5048876;28;20700;-72
2022/04/15 01:14:40;;;;;;;10.30;7.10;;;;;;;8.77;82.06;102285.53;5048881;28;20202;-72
2022/04/15 01:17:05;;;;;;;10.83;6.70;;;;;;;8.79;81.84;102300.13;5030774;28;20296;-72
2022/04/15 01:19:30;;;;;;;8.90;6.50;;;;;;;8.80;82.34;102293.34;5027209;28;20304;-72
2022/04/15 01:22:01;;;;;;;10.80;7.07;;;;;;;8.76;82.09;102292.28;5028416;28;20189;-72
2022/04/15 01:24:28;;;;;;;12.43;6.73;;;;;;;8.78;82.08;102293.28;5028906;28;20230;-71
2022/04/15 01:26:54;;;;;;;8.80;6.83;;;;;;;8.77;81.27;102303.41;5010833;28;20218;-71
2022/04/15 01:29:19;;;;;;;7.27;6.03;;;;;;;8.78;81.87;102297.50;5010818;28;20276;-71
2022/04/15 01:31:44;;;;;;;10.37;7.40;;;;;;;8.76;81.68;102302.50;5029252;28;20190;-71
2022/04/15 01:34:10;;;;;;;7.70;6.07;;;;;;;8.74;82.74;102306.69;5028697;28;20210;-72
2022/04/15 01:36:35;;;;;;;9.50;6.80;;;;;;;8.77;82.92;102311.06;5029662;28;20191;-71
2022/04/15 01:39:02;;;;;;;11.83;7.53;;;;;;;8.76;82.38;102312.72;5029000;28;20182;-71
2022/04/15 01:41:27;;;;;;;9.53;6.53;;;;;;;8.75;82.59;102305.03;5029599;28;20210;-72
2022/04/15 01:43:52;;;;;;;10.53;7.13;;;;;;;8.75;83.00;102305.03;5010897;28;20590;-71
2022/04/15 01:46:18;;;;;;;12.47;7.40;;;;;;;8.71;83.30;102311.63;5029359;28;20182;-72
2022/04/15 01:48:43;;;;;;;11.37;7.30;;;;;;;8.71;82.84;102309.06;5029378;28;20198;-72
2022/04/15 01:51:08;;;;;;;11.77;6.80;;;;;;;8.73;83.25;102314.25;5028717;28;20182;-71
2022/04/15 01:53:34;;;;;;;9.03;5.77;;;;;;;8.73;82.84;102312.59;5029755;28;20348;-71
2022/04/15 01:55:59;;;;;;;10.37;6.33;;;;;;;8.71;83.46;102313.31;5022911;28;20195;-72
2022/04/15 01:58:24;;;;;;;10.50;7.07;;;;;;;8.70;82.98;102312.44;5007886;28;20196;-72
2022/04/15 02:00:49;;;;;;;9.93;6.67;;;;;;;8.71;83.25;102308.22;5010639;28;20210;-71
2022/04/15 02:03:15;;;;;;;9.80;7.00;;;;;;;8.71;82.98;102303.97;5013620;28;20183;-72
2022/04/15 02:05:40;;;;;;;10.83;7.33;;;;;;;8.70;83.60;102317.53;5011994;28;20211;-71
2022/04/15 02:08:06;;;;;;;9.20;6.97;;;;;;;8.71;83.40;102311.63;5013208;28;20329;-72
2022/04/15 02:10:32;;;;;;;11.57;6.90;;;;;;;8.69;82.80;102310.69;5018535;28;20192;-71
2022/04/15 02:12:57;;;;;;;11.57;6.60;;;;;;;8.73;83.32;102310.03;5034522;28;20181;-71
2022/04/15 02:15:23;;;;;;;9.67;6.67;;;;;;;8.72;83.22;102320.16;5053094;28;20702;-71
2022/04/15 02:17:48;;;;;;;11.13;7.63;;;;;;;8.71;83.24;102314.19;5034765;28;20658;-71
2022/04/15 02:20:13;;;;;;;14.50;7.60;;;;;;;8.72;83.58;102317.63;5052694;28;20220;-71
2022/04/15 02:22:39;;;;;;;9.43;7.23;;;;;;;8.73;83.76;102319.38;5052496;28;20189;-72
2022/04/15 02:25:05;;;;;;;9.63;6.50;;;;;;;8.70;84.24;102316.69;5052550;28;20217;-71
2022/04/15 02:27:30;;;;;;;7.90;6.93;;;;;;;8.70;84.31;102314.97;5049197;28;20198;-71
2022/04/15 02:29:55;;;;;;;12.10;7.60;;;;;;;8.72;83.57;102312.50;5032012;28;20220;-72
2022/04/15 02:32:23;;;;;;;11.33;8.33;;;;;;;8.69;83.88;102308.13;5033063;28;20209;-72
2022/04/15 02:34:48;;;;;;;12.50;8.57;;;;;;;8.66;84.04;102310.53;5032142;28;20210;-71
2022/04/15 02:37:13;;;;;;;13.93;8.33;;;;;;;8.67;83.53;102322.47;5032671;28;20193;-71
2022/04/15 02:39:39;;;;;;;10.97;8.30;;;;;;;8.66;83.96;102315.63;5014222;28;20214;-71
2022/04/15 02:42:04;;;;;;;13.17;9.80;;;;;;;8.65;84.35;102318.97;5031911;28;20209;-71
2022/04/15 02:44:30;;;;;;;17.23;10.63;;;;;;;8.64;84.13;102312.13;5032813;28;20596;-71
2022/04/15 02:46:57;;;;;;;15.87;10.53;;;;;;;8.63;84.35;102305.28;5031808;28;20210;-71
2022/04/15 02:49:23;;;;;;;16.13;10.73;;;;;;;8.63;84.73;102312.94;5032204;28;20194;-72
2022/04/15 02:51:49;;;;;;;15.53;11.77;;;;;;;8.61;84.89;102313.66;5031859;28;20198;-72
2022/04/15 02:54:14;;;;;;;17.13;12.20;;;;;;;8.60;85.12;102322.97;5032291;28;20247;-72
2022/04/15 02:56:39;;;;;;;19.93;12.13;;;;;;;8.59;84.22;102326.34;5021585;28;20660;-72
2022/04/15 02:59:04;;;;;;;17.73;11.67;;;;;;;8.59;85.53;102326.34;5014383;28;20202;-71
2022/04/15 03:01:30;;;;;;;19.87;11.27;;;;;;;8.57;85.95;102327.91;5014482;28;20229;-72
2022/04/15 03:03:55;;;;;;;14.23;9.87;;;;;;;8.58;85.18;102332.25;5031751;28;20202;-72
2022/04/15 03:06:20;;;;;;;15.93;11.40;;;;;;;8.55;85.11;102332.09;5031972;28;20209;-71
2022/04/15 03:08:46;;;;;;;16.73;11.70;;;;;;;8.55;85.73;102329.53;5031556;28;20187;-71
2022/04/15 03:11:11;;;;;;;16.93;11.63;;;;;;;8.54;86.74;102329.44;5031779;28;20228;-71
2022/04/15 03:13:36;;;;;;;17.53;11.63;;;;;;;8.56;86.37;102336.38;5030751;28;20187;-72
2022/04/15 03:16:03;;;;;;;18.27;11.77;;;;;;;8.50;86.38;102337.75;5031979;28;20549;-71
2022/04/15 03:18:28;;;;;;;18.87;12.37;;;;;;;8.54;86.87;102332.88;5031916;28;20205;-71
2022/04/15 03:20:53;;;;;;;20.93;12.90;;;;;;;8.53;86.51;102337.91;5031394;28;20680;-72
2022/04/15 03:23:21;;;;;;;17.10;11.73;;;;;;;8.51;87.29;102335.28;5031863;28;20197;-71
2022/04/15 03:25:47;;;;;;;16.27;11.90;;;;;;;8.51;87.17;102330.16;5031446;28;20202;-72
2022/04/15 03:28:13;;;;;;;22.60;13.70;;;;;;;8.50;87.07;102338.63;5032030;28;20205;-71
2022/04/15 03:30:38;;;;;;;21.17;13.03;;;;;;;8.50;87.62;102333.53;5031399;28;20178;-71
2022/04/15 03:33:04;;;;;;;17.10;11.97;;;;;;;8.52;87.30;102336.16;5031722;28;20179;-71
2022/04/15 03:35:29;;;;;;;17.93;12.40;;;;;;;8.53;87.71;102338.78;5030240;28;20214;-72
2022/04/15 03:37:54;;;;;;;22.23;12.50;;;;;;;8.53;86.40;102337.91;5031641;28;20191;-71
2022/04/15 03:40:20;;;;;;;19.23;12.47;;;;;;;8.51;87.93;102339.50;5031126;28;20225;-71
2022/04/15 03:42:51;;;;;;;17.13;11.83;;;;;;;8.51;88.03;102342.03;5013062;28;20194;-72
2022/04/15 03:45:19;;;;;;;19.97;11.73;;;;;;;8.52;87.96;102343.81;5031464;28;20210;-71
2022/04/15 03:47:46;;;;;;;16.60;12.40;;;;;;;8.50;87.74;102337.75;5030860;28;20221;-71
2022/04/15 03:50:11;;;;;;;20.83;12.13;;;;;;;8.47;87.20;102341.00;5031003;28;20190;-71
2022/04/15 03:52:46;;;;;;;19.07;12.20;;;;;;;8.52;87.53;102339.56;5031287;28;20200;-71
2022/04/15 03:55:13;;;;;;;17.63;11.43;;;;;;;8.52;87.87;102343.81;5018618;28;20703;-71
2022/04/15 03:57:39;;;;;;;15.50;10.00;;;;;;;8.51;87.11;102334.38;5012470;28;20186;-71
2022/04/15 04:00:10;;;;;;;17.87;10.40;;;;;;;8.50;87.27;102345.41;5030761;28;20574;-71
2022/04/15 04:02:36;;;;;;;16.10;10.03;;;;;;;8.51;88.40;102354.81;5031000;28;20196;-71
2022/04/15 04:05:01;;;;;;;12.90;9.70;;;;;;;8.52;87.83;102354.03;5012814;28;20645;-71
2022/04/15 04:07:27;;;;;;;14.50;9.90;;;;;;;8.51;87.42;102354.81;5013032;28;20182;-71
2022/04/15 04:09:52;;;;;;;13.13;9.77;;;;;;;8.51;88.31;102354.81;5036292;28;20618;-71
2022/04/15 04:12:18;;;;;;;16.37;9.50;;;;;;;8.47;86.95;102356.34;5045073;28;20198;-71
2022/04/15 04:14:43;;;;;;;11.83;8.67;;;;;;;8.48;87.17;102352.13;5030172;28;20198;-72
2022/04/15 04:17:08;;;;;;;16.10;10.67;;;;;;;8.44;87.64;102355.31;5030828;28;20210;-71
2022/04/15 04:19:34;;;;;;;13.23;10.07;;;;;;;8.45;87.32;102354.50;5030407;28;20225;-71
2022/04/15 04:21:59;;;;;;;13.27;10.70;;;;;;;8.46;87.12;102358.81;5030381;28;20214;-71
2022/04/15 04:24:25;;;;;;;11.97;10.27;;;;;;;8.39;87.82;102357.59;5029392;28;20214;-72
2022/04/15 04:26:50;;;;;;;14.13;11.30;;;;;;;8.42;87.61;102361.97;5034675;28;20197;-71
2022/04/15 04:29:16;;;;;;;14.57;10.83;;;;;;;8.41;87.39;102363.69;5048822;28;20217;-72
2022/04/15 04:31:41;;;;;;;16.53;10.93;;;;;;;8.43;87.92;102368.88;5029072;28;20256;-71
2022/04/15 04:34:07;;;;;;;13.87;11.23;;;;;;;8.42;88.80;102361.97;5015340;28;20219;-72
2022/04/15 04:36:32;;;;;;;12.10;10.33;;;;;;;8.44;87.80;102370.63;4992767;28;20191;-72
2022/04/15 04:38:57;;;;;;;13.50;10.47;;;;;;;8.43;88.57;102371.44;5010803;28;20183;-72
2022/04/15 04:41:23;;;;;;;13.53;11.03;;;;;;;8.39;89.12;102378.00;5010463;28;20641;-71
2022/04/15 04:43:49;;;;;;;17.60;12.27;;;;;;;8.41;89.17;102381.53;5022165;28;20603;-71
2022/04/15 04:46:21;;;;;;;16.33;11.70;;;;;;;8.42;88.15;102379.84;5090744;27;20585;-72
2022/04/15 04:48:46;;;;;;;17.87;12.13;;;;;;;8.44;88.87;102384.25;5086613;28;20214;-72
2022/04/15 04:51:12;;;;;;;17.20;12.93;;;;;;;8.47;88.22;102381.00;5090369;28;20188;-72
2022/04/15 04:53:37;;;;;;;17.47;12.80;;;;;;;8.45;89.31;102380.03;5084749;28;20194;-72
2022/04/15 04:56:02;;;;;;;21.07;13.77;;;;;;;8.43;88.83;102384.19;5085310;28;20626;-72
2022/04/15 04:58:28;;;;;;;18.97;13.87;;;;;;;8.48;88.32;102385.31;5086834;28;20558;-72
2022/04/15 05:00:53;;;;;;;20.73;14.27;;;;;;;8.51;89.32;102394.00;5086051;28;20199;-72
2022/04/15 05:03:18;;;;;;;20.27;14.30;;;;;;;8.52;89.49;102400.84;5086993;28;20210;-72
2022/04/15 05:05:44;;;;;;;22.20;16.43;;;;;;;8.54;88.75;102398.38;5086353;28;20220;-72
2022/04/15 05:08:09;;;;;;;20.90;15.23;;;;;;;8.55;89.60;102395.03;5084792;28;20184;-72
2022/04/15 05:10:34;;;;;;;25.13;17.43;;;;;;;8.59;89.68;102413.16;5065262;28;20181;-70
2022/04/15 05:13:00;;;;;;;26.70;18.13;;;;;;;8.61;89.45;102410.69;5065540;28;20210;-72
2022/04/15 05:15:25;;;;;;;28.47;18.93;;;;;;;8.57;89.36;102418.97;5064918;28;20212;-72
2022/04/15 05:17:50;;;;;;;28.93;20.33;;;;;;;8.57;89.54;102418.97;5066460;28;20181;-72
2022/04/15 05:20:15;;;;;;;30.03;21.33;;;;;;;8.58;90.22;102424.16;5066346;28;20200;-72
2022/04/15 05:22:41;;;;;;;32.03;21.67;;;;;;;8.59;89.95;102422.47;5065803;28;20792;-72
2022/04/15 05:25:07;;;;;;;33.13;22.77;;;;;;;8.65;89.94;102422.78;5066230;28;20213;-72
2022/04/15 05:27:32;;;;;;;37.20;23.03;;;;;;;8.65;90.88;102421.13;5065619;28;20189;-72
2022/04/15 05:29:57;;;;;;;32.90;23.17;;;;;;;8.67;90.49;102427.16;5065838;28;20181;-72
2022/04/15 05:32:23;;;;;;;33.77;22.97;;;;;;;8.70;89.72;102435.00;5065411;28;20189;-72
2022/04/15 05:34:48;;;;;;;30.53;21.77;;;;;;;8.78;89.43;102433.72;5071067;28;20208;-72
2022/04/15 05:37:13;;;;;;;32.77;21.67;;;;;;;8.82;89.60;102435.66;5063671;28;20193;-72
2022/04/15 05:39:39;;;;;;;32.43;22.47;;;;;;;8.90;90.00;102438.59;5063169;28;20185;-73
2022/04/15 05:42:05;;;;;;;32.90;23.13;;;;;;;8.88;89.40;102438.50;5066560;28;20213;-72
2022/04/15 05:44:30;;;;;;;32.57;22.83;;;;;;;8.93;89.79;102448.94;5064926;28;20213;-71
2022/04/15 05:46:56;;;;;;;36.90;24.10;;;;;;;8.97;88.97;102445.75;5080475;28;20200;-72
2022/04/15 05:49:23;;;;;;;36.90;23.67;;;;;;;9.01;89.24;102447.66;5085776;28;20696;-72
2022/04/15 05:51:49;;;;;;;36.50;23.23;;;;;;;9.04;89.18;102451.25;5085525;28;20193;-71
2022/04/15 05:54:14;;;;;;;31.80;22.10;;;;;;;9.05;88.88;102449.59;5085851;28;20334;-72
2022/04/15 05:56:39;;;;;;;32.97;22.17;;;;;;;9.05;89.14;102453.03;5077854;28;20185;-71
2022/04/15 05:59:05;;;;;;;31.07;21.63;;;;;;;9.06;88.82;102459.88;5059625;28;20189;-71
2022/04/15 06:01:31;;;;;;;36.63;24.17;;;;;;;9.03;89.30;102459.72;5051570;28;20537;-72
2022/04/15 06:03:56;;;;;;;32.60;21.73;;;;;;;9.03;89.22;102472.50;5050809;28;20561;-72
2022/04/15 06:06:21;;;;;;;31.97;21.30;;;;;;;9.03;88.47;102463.97;5051657;28;20197;-72
2022/04/15 06:08:47;;;;;;;32.00;23.20;;;;;;;9.04;88.57;102470.84;5051932;28;20186;-73
2022/04/15 06:11:12;;;;;;;31.30;22.17;;;;;;;9.11;88.72;102465.22;5051448;28;20194;-72
2022/04/15 06:13:41;;;;;;;30.97;22.03;;;;;;;9.08;88.43;102472.75;5051878;28;20186;-71
2022/04/15 06:16:09;;;;;;;31.33;19.30;;;;;;;9.15;88.18;102472.25;5049266;28;20190;-72
2022/04/15 06:18:36;;;;;;;32.90;21.03;;;;;;;9.13;87.33;102472.16;5051356;28;20204;-71
2022/04/15 06:21:04;;;;;;;30.60;20.67;;;;;;;9.17;87.85;102479.19;5051561;28;20200;-72
2022/04/15 06:23:30;;;;;;;28.23;19.70;;;;;;;9.21;87.32;102480.25;5043929;28;20181;-71
2022/04/15 06:25:55;;;;;;;26.90;19.03;;;;;;;9.21;87.75;102485.38;5051646;28;20849;-71
2022/04/15 06:28:21;;;;;;;30.40;19.53;;;;;;;9.30;86.99;102483.28;5050678;28;20190;-72
2022/04/15 06:30:47;;;;;;;27.93;17.90;;;;;;;9.37;86.65;102485.31;5033583;28;20197;-70
2022/04/15 06:33:16;;;;;;;30.33;20.10;;;;;;;9.32;87.01;102490.22;5050590;28;20201;-69
2022/04/15 06:35:41;;;;;;;29.37;19.07;;;;;;;9.39;87.52;102489.72;5049645;28;20229;-72
2022/04/15 06:38:07;;;;;;;28.43;19.30;;;;;;;9.47;87.07;102492.66;5032436;28;20722;-72
2022/04/15 06:40:32;;;;;;;26.13;18.03;;;;;;;9.53;87.66;102493.84;5050410;28;20235;-72
2022/04/15 06:42:58;;;;;;;29.23;19.20;;;;;;;9.53;86.31;102500.63;5051367;28;20186;-72
2022/04/15 06:45:24;;;;;;;30.97;19.20;;;;;;;9.59;87.21;102500.94;5052649;28;20214;-69
2022/04/15 06:47:49;;;;;;;32.73;19.53;;;;;;;9.61;86.02;102501.88;5070957;28;20189;-70
2022/04/15 06:50:16;;;;;;;29.47;19.23;;;;;;;9.59;86.73;102503.50;5056495;28;20255;-69
2022/04/15 06:52:42;;;;;;;28.60;19.33;;;;;;;9.77;85.64;102505.28;5051016;28;20188;-69
2022/04/15 06:55:07;;;;;;;30.03;20.23;;;;;;;9.85;85.48;102513.31;5051048;28;20710;-72
2022/04/15 06:57:32;;;;;;;30.30;18.30;;;;;;;9.92;85.19;102498.38;5049496;28;20189;-72
2022/04/15 06:59:58;;;;;;;30.23;20.37;;;;;;;9.96;84.63;102497.69;5051116;28;20280;-72
2022/04/15 07:02:25;;;;;;;29.73;20.17;;;;;;;9.95;84.73;102507.88;5050712;28;20190;-69
2022/04/15 07:04:50;;;;;;;31.70;19.20;;;;;;;10.01;84.07;102505.59;5050719;28;20205;-72
2022/04/15 07:07:16;;;;;;;29.07;20.03;;;;;;;10.07;84.29;102503.34;5050406;28;20201;-71
2022/04/15 07:09:41;;;;;;;30.97;18.90;;;;;;;10.26;84.48;102503.41;5049296;28;20186;-72
2022/04/15 07:12:07;;;;;;;29.13;19.10;;;;;;;10.20;84.21;102513.38;5049066;28;20189;-72
2022/04/15 07:14:33;;;;;;;28.67;18.57;;;;;;;10.18;84.28;102525.25;5050150;28;20205;-72
2022/04/15 07:16:59;;;;;;;31.87;19.97;;;;;;;10.02;84.42;102533.81;5052739;28;20212;-72
2022/04/15 07:19:24;;;;;;;35.67;20.00;;;;;;;9.86;85.00;102535.56;5075362;28;20218;-71
2022/04/15 07:21:49;;;;;;;29.47;19.90;;;;;;;9.85;85.94;102538.91;5070820;28;20624;-72
2022/04/15 07:24:15;;;;;;;34.50;20.37;;;;;;;9.78;85.93;102532.63;5068785;28;20270;-71
2022/04/15 07:26:40;;;;;;;32.23;20.03;;;;;;;9.71;86.27;102540.78;5090169;28;20709;-71
2022/04/15 07:29:06;;;;;;;31.00;20.43;;;;;;;9.65;86.73;102549.84;5090384;28;20280;-72
2022/04/15 07:31:32;;;;;;;30.93;20.17;;;;;;;9.69;86.91;102554.31;5089755;28;20208;-72
2022/04/15 07:33:58;;;;;;;31.83;19.23;;;;;;;9.65;86.10;102555.84;5080610;28;20329;-72
2022/04/15 07:39:06;;;;;;;24.97;15.83;;;;;;;9.67;85.57;102558.47;5069927;28;20183;-72
2022/04/15 07:41:32;;;;;;;28.70;16.80;;;;;;;9.70;85.79;102568.84;5053244;28;20840;-72
2022/04/15 07:43:57;;;;;;;29.27;16.97;;;;;;;9.64;85.64;102574.50;5049895;28;20212;-72
2022/04/15 07:46:23;;;;;;;29.43;16.60;;;;;;;9.66;86.40;102572.94;5059900;28;20208;-72
2022/04/15 07:48:48;;;;;;;25.97;16.30;;;;;;;9.68;85.60;102578.13;5068442;28;20222;-70
2022/04/15 07:51:14;;;;;;;26.27;16.10;;;;;;;9.73;86.10;102574.13;5077878;28;20184;-72
2022/04/15 07:53:39;;;;;;;26.03;14.87;;;;;;;9.93;86.17;102571.75;5088498;28;20241;-69
2022/04/15 07:56:05;;;;;;;26.50;15.07;;;;;;;9.98;84.81;102572.84;5090000;28;20733;-69
2022/04/15 07:58:30;;;;;;;23.63;14.87;;;;;;;10.00;84.75;102575.50;5071673;28;20283;-70
2022/04/15 08:00:55;;;;;;;27.23;15.43;;;;;;;9.99;85.81;102578.84;5068154;28;20281;-70
2022/04/15 08:03:25;;;;;;;27.67;15.77;;;;;;;9.92;85.09;102587.91;5068768;28;20192;-72
2022/04/15 08:05:51;;;;;;;26.77;16.27;;;;;;;9.92;84.64;102585.34;5069502;28;20828;-72
2022/04/15 08:08:16;;;;;;;27.13;17.03;;;;;;;9.92;85.27;102594.69;5067644;28;20204;-73
2022/04/15 08:10:41;;;;;;;26.27;16.03;;;;;;;9.89;84.95;102595.44;5068888;28;20277;-73
2022/04/15 08:13:07;;;;;;;24.63;16.33;;;;;;;9.88;84.87;102595.34;5069564;28;20264;-73
2022/04/15 08:15:33;;;;;;;27.20;16.63;;;;;;;9.90;85.51;102601.44;5067115;28;20303;-72
2022/04/15 08:17:59;;;;;;;24.83;16.53;;;;;;;9.87;86.18;102601.28;5067863;28;20790;-70
2022/04/15 08:20:24;;;;;;;29.27;17.30;;;;;;;9.86;85.54;102605.50;5068647;28;20280;-72
2022/04/15 08:22:49;;;;;;;30.17;17.73;;;;;;;9.86;86.18;102604.63;5067677;28;20197;-70
2022/04/15 08:25:14;;;;;;;31.77;17.37;;;;;;;9.94;85.27;102604.22;5079578;28;20230;-72
2022/04/15 08:27:40;;;;;;;28.00;17.13;;;;;;;9.99;85.20;102599.31;5087674;28;20199;-72
2022/04/15 08:30:07;;;;;;;28.57;17.60;;;;;;;9.96;85.42;102606.84;5089356;28;20256;-70
2022/04/15 08:32:35;;;;;;;27.23;18.50;;;;;;;10.05;85.49;102615.03;5069555;28;20185;-73
2022/04/15 08:35:06;;;;;;;26.70;17.37;;;;;;;9.93;85.95;102615.25;5069250;28;20755;-73
2022/04/15 08:37:33;;;;;;;30.03;18.83;;;;;;;9.90;85.74;102619.34;5069519;28;20203;-72
2022/04/15 08:39:58;;;;;;;29.13;18.83;;;;;;;9.95;86.13;102620.47;5050542;28;20223;-72
2022/04/15 08:42:24;;;;;;;30.90;18.70;;;;;;;9.98;86.14;102620.59;5068941;28;20213;-73
2022/04/15 08:44:51;;;;;;;29.03;17.57;;;;;;;9.98;85.65;102624.03;5065393;28;20223;-70
2022/04/15 08:47:16;;;;;;;32.60;18.90;;;;;;;9.97;86.16;102624.84;5047559;28;20255;-69
2022/04/15 08:49:42;;;;;;;35.43;19.93;;;;;;;10.00;86.49;102634.34;5065914;28;20197;-69
2022/04/15 08:52:14;;;;;;;32.93;19.13;;;;;;;10.03;86.67;102625.16;5067314;28;20203;-70
2022/04/15 08:54:39;;;;;;;29.70;18.47;;;;;;;10.11;86.32;102641.81;5051006;28;20213;-72
2022/04/15 08:57:06;;;;;;;31.23;19.10;;;;;;;10.11;86.44;102643.47;5068349;28;20234;-73
2022/04/15 08:59:32;;;;;;;30.53;20.13;;;;;;;10.31;85.17;102632.53;5067967;28;20181;-71
2022/04/15 09:01:57;;;;;;;33.67;20.33;;;;;;;10.39;84.75;102644.03;5067876;28;20715;-70
2022/04/15 09:04:23;;;;;;;27.67;18.57;;;;;;;10.41;85.02;102650.97;5067618;28;20681;-72
2022/04/15 09:06:56;;;;;;;30.53;19.20;;;;;;;10.20;84.51;102654.16;5075839;28;20666;-72
2022/04/15 09:09:24;;;;;;;30.37;19.77;;;;;;;10.17;85.53;102657.47;5086143;28;20200;-73
2022/04/15 09:11:50;;;;;;;34.37;20.10;;;;;;;10.18;86.07;102661.78;5078332;28;20184;-73
2022/04/15 09:14:15;;;;;;;29.97;20.60;;;;;;;10.24;86.38;102672.34;5068165;28;20304;-73
2022/04/15 09:16:47;;;;;;;34.23;20.40;;;;;;;10.21;86.18;102668.72;5068637;28;20268;-72
2022/04/15 09:19:13;;;;;;;30.87;19.67;;;;;;;10.22;85.49;102675.59;5068166;28;20280;-72
2022/04/15 09:21:41;;;;;;;30.33;19.73;;;;;;;10.45;84.05;102662.25;5066396;28;20657;-72
2022/04/15 09:24:07;;;;;;;29.37;19.20;;;;;;;10.64;83.99;102675.16;5069340;28;20208;-71
2022/04/15 09:26:33;;;;;;;30.17;18.97;;;;;;;10.80;83.34;102673.41;5088785;28;20193;-69
2022/04/15 09:28:59;;;;;;;28.10;18.30;;;;;;;10.65;82.99;102677.78;5088554;28;20263;-71
2022/04/15 09:31:25;;;;;;;27.10;18.70;;;;;;;10.79;81.97;102675.91;5089073;28;20267;-72
2022/04/15 09:33:53;;;;;;;26.00;17.37;;;;;;;10.83;81.74;102686.34;5092540;28;20318;-72
2022/04/15 09:36:48;;;;;;;28.27;18.33;;;;;;;10.71;81.55;102683.22;5092114;28;20219;-69
2022/04/15 09:39:16;;;;;;;26.03;18.77;;;;;;;10.63;82.31;102688.75;5067584;28;20206;-70
2022/04/15 09:41:56;;;;;;;26.57;18.87;;;;;;;10.61;82.69;102691.28;5051837;28;20201;-69
2022/04/15 09:44:22;;;;;;;25.20;18.20;;;;;;;10.80;82.20;102686.22;5052101;28;20594;-70
2022/04/15 09:46:50;;;;;;;26.57;18.23;;;;;;;10.73;82.38;102691.84;5064466;28;20743;-72
2022/04/15 09:49:16;;;;;;;23.93;17.80;;;;;;;10.71;81.85;102693.47;5071671;28;20685;-72
2022/04/15 09:51:52;;;;;;;28.17;18.43;;;;;;;10.66;82.43;102694.94;5071860;28;20189;-70
2022/04/15 09:54:26;;;;;;;28.00;18.87;;;;;;;10.61;82.20;102696.41;5070341;28;20205;-70
2022/04/15 09:56:53;;;;;;;26.07;18.13;;;;;;;10.61;82.49;102709.22;5059873;28;20212;-72
2022/04/15 09:59:21;;;;;;;25.80;17.77;;;;;;;10.65;81.17;102705.97;5050686;28;20182;-73
2022/04/15 10:01:48;;;;;;;24.17;17.13;;;;;;;10.69;82.70;102710.44;5051550;28;20186;-72
2022/04/15 10:04:14;;;;;;;26.83;18.07;;;;;;;10.78;82.12;102716.00;5067624;28;20224;-69
2022/04/15 10:06:41;;;;;;;24.83;17.43;;;;;;;10.85;82.00;102709.50;5071689;28;20177;-70
2022/04/15 10:09:12;;;;;;;20.07;15.87;;;;;;;10.87;81.06;102721.56;5072011;28;20188;-70
2022/04/15 10:11:40;;;;;;;21.37;15.13;;;;;;;10.68;80.81;102711.25;5069826;28;20213;-70
2022/04/15 10:14:06;;;;;;;20.57;15.67;;;;;;;10.64;81.43;102728.97;5069444;28;20212;-70
2022/04/15 10:16:33;;;;;;;26.00;17.20;;;;;;;10.57;81.60;102730.34;5071062;28;20177;-72
2022/04/15 10:19:00;;;;;;;25.37;18.00;;;;;;;10.60;81.44;102732.19;5071594;28;20188;-69
2022/04/15 10:21:27;;;;;;;28.40;18.17;;;;;;;10.52;81.32;102725.78;5071026;28;20270;-70
2022/04/15 10:23:52;;;;;;;26.13;17.53;;;;;;;10.49;82.39;102731.63;5071330;28;20185;-69
2022/04/15 10:26:18;;;;;;;22.70;16.60;;;;;;;10.50;82.48;102728.25;5090124;28;20215;-70
2022/04/15 10:28:47;;;;;;;24.70;16.90;;;;;;;10.46;82.12;102741.72;5089978;28;20192;-69
2022/04/15 10:31:16;;;;;;;26.27;18.47;;;;;;;10.47;82.06;102732.38;5063204;28;20200;-70
2022/04/15 10:33:43;;;;;;;24.87;18.23;;;;;;;10.50;82.51;102732.53;5050707;28;20272;-70
2022/04/15 10:36:15;;;;;;;25.57;17.97;;;;;;;10.45;82.75;102736.50;5051209;28;20188;-69
2022/04/15 10:39:09;;;;;;;24.67;19.37;;;;;;;10.43;82.42;102736.47;5050674;28;20193;-69
2022/04/15 10:41:41;;;;;;;26.60;18.33;;;;;;;10.53;82.92;102743.81;5050814;28;20620;-73
2022/04/15 10:44:10;;;;;;;25.43;18.37;;;;;;;10.67;82.76;102744.47;5049681;28;20220;-73
2022/04/15 10:46:36;;;;;;;24.07;17.40;;;;;;;10.59;81.55;102738.97;5064506;28;20662;-70
2022/04/15 10:49:19;;;;;;;24.30;16.73;;;;;;;10.74;82.07;102743.97;5067171;28;20227;-72
2022/04/15 10:51:45;;;;;;;25.07;17.10;;;;;;;10.87;82.55;102743.78;5070742;28;20235;-73
2022/04/15 10:54:30;;;;;;;25.57;17.83;;;;;;;10.84;81.92;102743.63;5069941;28;20299;-72
2022/04/15 10:57:04;;;;;;;23.23;16.43;;;;;;;10.89;81.80;102747.28;5070609;28;20222;-72
2022/04/15 11:02:18;;;;;;;25.27;17.90;;;;;;;10.89;82.46;102747.28;5070346;28;20189;-70
2022/04/15 11:04:52;;;;;;;22.00;17.17;;;;;;;10.83;82.28;102759.81;5049427;28;20259;-74
2022/04/15 11:07:29;;;;;;;26.50;18.60;;;;;;;10.74;82.54;102756.78;5033395;28;20197;-73
2022/04/15 11:09:59;;;;;;;24.60;17.60;;;;;;;10.80;81.79;102760.53;5029767;28;20244;-72
2022/04/15 11:12:33;;;;;;;24.87;17.37;;;;;;;10.72;82.15;102759.28;5043834;28;20204;-71
2022/04/15 11:14:58;;;;;;;23.70;17.47;;;;;;;10.74;81.70;102761.91;5032110;28;20282;-72
2022/04/15 11:17:44;;;;;;;25.80;17.23;;;;;;;10.79;82.31;102763.88;5049634;28;20620;-72
2022/04/15 11:20:09;;;;;;;23.27;16.80;;;;;;;10.72;82.25;102766.06;5050578;28;20729;-72
2022/04/15 11:22:42;;;;;;;22.20;16.27;;;;;;;10.73;82.57;102765.28;5032669;28;20202;-72